Time;durP1;ratioP1;P1;durP2;ratioP2;P2;SDS_P1;SDS_P2;PMS_P1;PMS_P2;Temp;Humidity;BMP_temperature;BMP_pressure;BME280_temperature;BME280_humidity;BME280_pressure;Samples;Min_cycle;Max_cycle;Signal;HPM_P1;HPM_P2
2021/08/12 00:00:18;;;;;;;7.07;3.33;;;;;;;;;;4939144;29;20028;-88
2021/08/12 00:02:45;;;;;;;8.10;2.92;;;;;;;;;;4939319;29;20111;-91
2021/08/12 00:05:11;;;;;;;7.35;2.58;;;;;;;;;;4939507;29;20032;-90
2021/08/12 00:07:37;;;;;;;4.60;2.25;;;;;;;;;;4939195;29;20051;-86
2021/08/12 00:10:04;;;;;;;5.13;3.03;;;;;;;;;;4938936;29;20039;-87
2021/08/12 00:12:30;;;;;;;10.82;3.20;;;;;;;;;;4939368;29;20028;-91
2021/08/12 00:14:57;;;;;;;7.25;3.03;;;;;;;;;;4938993;29;20042;-86
2021/08/12 00:17:23;;;;;;;6.18;2.70;;;;;;;;;;4938931;29;20114;-87
2021/08/12 00:19:49;;;;;;;6.10;2.50;;;;;;;;;;4938898;29;20114;-90
2021/08/12 00:22:15;;;;;;;4.43;2.55;;;;;;;;;;4938899;29;20036;-90
2021/08/12 00:24:41;;;;;;;4.90;2.65;;;;;;;;;;4939198;29;20038;-90
2021/08/12 00:27:08;;;;;;;6.05;3.05;;;;;;;;;;4938895;29;20036;-90
2021/08/12 00:29:34;;;;;;;5.25;2.60;;;;;;;;;;4938896;29;20023;-86
2021/08/12 00:32:00;;;;;;;5.50;2.47;;;;;;;;;;4939840;29;20090;-90
2021/08/12 00:34:26;;;;;;;6.35;2.60;;;;;;;;;;4938646;29;20035;-91
2021/08/12 00:36:52;;;;;;;5.93;2.50;;;;;;;;;;4939699;29;20075;-91
2021/08/12 00:39:19;;;;;;;5.90;2.67;;;;;;;;;;4938493;29;20031;-90
2021/08/12 00:41:45;;;;;;;5.82;2.50;;;;;;;;;;4938017;29;20035;-87
2021/08/12 00:44:12;;;;;;;5.28;2.40;;;;;;;;;;4938064;29;20032;-86
2021/08/12 00:46:38;;;;;;;4.00;2.33;;;;;;;;;;4938739;29;20071;-89
2021/08/12 00:49:04;;;;;;;6.90;2.80;;;;;;;;;;4938453;29;20362;-88
2021/08/12 00:51:31;;;;;;;5.88;2.83;;;;;;;;;;4937854;29;20050;-87
2021/08/12 00:53:57;;;;;;;5.75;2.35;;;;;;;;;;4938435;29;20481;-90
2021/08/12 00:56:26;;;;;;;4.57;2.63;;;;;;;;;;4938222;29;20146;-91
2021/08/12 00:58:52;;;;;;;5.25;2.53;;;;;;;;;;4937825;29;20032;-87
2021/08/12 01:01:19;;;;;;;7.38;2.90;;;;;;;;;;4939106;29;20028;-91
2021/08/12 01:03:45;;;;;;;4.85;2.40;;;;;;;;;;4939112;29;20035;-92
2021/08/12 01:06:12;;;;;;;4.47;1.98;;;;;;;;;;4939248;29;20066;-87
2021/08/12 01:08:43;;;;;;;5.32;2.40;;;;;;;;;;4939920;29;20470;-91
2021/08/12 01:11:15;;;;;;;4.90;2.15;;;;;;;;;;4938182;29;20031;-91
2021/08/12 01:13:50;;;;;;;4.73;2.23;;;;;;;;;;4938450;29;20032;-91
2021/08/12 01:16:18;;;;;;;4.57;2.50;;;;;;;;;;4938441;29;20035;-90
2021/08/12 01:18:52;;;;;;;6.60;2.25;;;;;;;;;;4938146;29;20035;-87
2021/08/12 01:21:24;;;;;;;4.45;2.28;;;;;;;;;;4938226;29;20028;-87
2021/08/12 01:23:50;;;;;;;7.13;2.35;;;;;;;;;;4938132;29;20027;-91
2021/08/12 01:26:18;;;;;;;4.05;2.22;;;;;;;;;;4937724;29;20030;-87
2021/08/12 01:28:45;;;;;;;4.63;2.17;;;;;;;;;;4937523;29;20032;-88
2021/08/12 01:31:27;;;;;;;4.60;2.17;;;;;;;;;;4937972;29;20031;-90
2021/08/12 01:33:53;;;;;;;5.43;2.08;;;;;;;;;;4937224;29;20401;-88
2021/08/12 01:36:20;;;;;;;4.38;2.15;;;;;;;;;;4937728;29;20043;-86
2021/08/12 01:38:47;;;;;;;4.78;2.15;;;;;;;;;;4937379;29;20028;-91
2021/08/12 01:41:14;;;;;;;7.72;2.25;;;;;;;;;;4937474;29;20028;-90
2021/08/12 01:43:40;;;;;;;5.05;2.05;;;;;;;;;;4937512;29;20027;-91
2021/08/12 01:46:07;;;;;;;5.47;2.28;;;;;;;;;;4937403;29;20032;-87
2021/08/12 01:48:34;;;;;;;5.13;2.35;;;;;;;;;;4937281;29;20032;-88
2021/08/12 01:51:00;;;;;;;5.15;2.50;;;;;;;;;;4936909;29;20023;-90
2021/08/12 01:53:28;;;;;;;7.63;2.20;;;;;;;;;;4937405;29;20052;-91
2021/08/12 01:55:56;;;;;;;4.63;2.17;;;;;;;;;;4937283;29;20127;-92
2021/08/12 01:58:24;;;;;;;5.22;2.10;;;;;;;;;;4937175;29;20058;-87
2021/08/12 02:00:52;;;;;;;5.55;2.45;;;;;;;;;;4937158;29;20031;-87
2021/08/12 02:03:18;;;;;;;6.60;2.25;;;;;;;;;;4938492;29;20020;-87
2021/08/12 02:05:47;;;;;;;4.88;2.17;;;;;;;;;;4937054;29;20039;-88
2021/08/12 02:08:13;;;;;;;3.83;2.03;;;;;;;;;;4936715;29;20031;-87
2021/08/12 02:10:42;;;;;;;5.20;2.10;;;;;;;;;;4936145;29;20481;-91
2021/08/12 02:13:12;;;;;;;5.97;2.08;;;;;;;;;;4937268;29;20039;-87
2021/08/12 02:15:38;;;;;;;8.57;3.45;;;;;;;;;;4936995;29;20059;-90
2021/08/12 02:18:05;;;;;;;4.75;2.28;;;;;;;;;;4936742;29;20086;-91
2021/08/12 02:20:32;;;;;;;6.85;1.95;;;;;;;;;;4936502;29;20122;-91
2021/08/12 02:23:01;;;;;;;5.47;2.45;;;;;;;;;;4936607;29;20023;-87
2021/08/12 02:26:06;;;;;;;3.95;2.17;;;;;;;;;;4936763;29;20171;-89
2021/08/12 02:28:33;;;;;;;4.43;2.45;;;;;;;;;;4879787;29;20037;-86
2021/08/12 02:31:01;;;;;;;5.28;2.45;;;;;;;;;;4863873;29;20124;-88
2021/08/12 02:33:28;;;;;;;6.30;2.70;;;;;;;;;;4908066;29;20039;-91
2021/08/12 02:35:55;;;;;;;6.82;2.38;;;;;;;;;;4936525;29;20126;-91
2021/08/12 02:38:22;;;;;;;3.95;2.40;;;;;;;;;;4936332;29;20477;-87
2021/08/12 02:40:50;;;;;;;4.05;2.33;;;;;;;;;;4936761;29;20027;-91
2021/08/12 02:43:18;;;;;;;4.05;2.28;;;;;;;;;;4936249;29;20023;-87
2021/08/12 02:45:45;;;;;;;4.00;1.85;;;;;;;;;;4936779;29;20031;-90
2021/08/12 02:48:12;;;;;;;5.40;2.22;;;;;;;;;;4936460;29;20051;-86
2021/08/12 02:50:39;;;;;;;5.40;2.45;;;;;;;;;;4936275;29;20059;-90
2021/08/12 02:53:06;;;;;;;5.28;2.70;;;;;;;;;;4936004;29;20445;-91
2021/08/12 02:55:32;;;;;;;5.60;2.30;;;;;;;;;;4935817;29;20031;-90
2021/08/12 02:57:59;;;;;;;5.38;2.20;;;;;;;;;;4936919;29;20063;-86
2021/08/12 03:00:25;;;;;;;5.18;2.35;;;;;;;;;;4935830;29;20119;-91
2021/08/12 03:02:53;;;;;;;4.28;2.10;;;;;;;;;;4936000;29;20039;-87
2021/08/12 03:05:20;;;;;;;6.60;2.20;;;;;;;;;;4935750;29;20063;-91
2021/08/12 03:07:48;;;;;;;3.90;2.13;;;;;;;;;;4936043;29;20028;-87
2021/08/12 03:10:17;;;;;;;4.68;2.13;;;;;;;;;;4936839;29;20027;-91
2021/08/12 03:12:44;;;;;;;3.75;2.35;;;;;;;;;;4935762;29;20118;-92
2021/08/12 03:15:11;;;;;;;4.05;2.08;;;;;;;;;;4935785;29;20031;-90
2021/08/12 03:17:37;;;;;;;4.65;2.28;;;;;;;;;;4936285;29;20150;-87
2021/08/12 03:20:04;;;;;;;4.13;2.20;;;;;;;;;;4936330;29;20031;-87
2021/08/12 03:22:31;;;;;;;3.85;2.42;;;;;;;;;;4937241;29;20024;-91
2021/08/12 03:24:57;;;;;;;5.03;2.17;;;;;;;;;;4936016;29;20083;-90
2021/08/12 03:27:23;;;;;;;6.47;2.13;;;;;;;;;;4935704;29;20034;-89
2021/08/12 03:29:50;;;;;;;4.88;2.55;;;;;;;;;;4935302;29;20028;-90
2021/08/12 03:32:17;;;;;;;3.83;2.05;;;;;;;;;;4936035;29;20145;-87
2021/08/12 03:34:44;;;;;;;6.15;2.58;;;;;;;;;;4935615;29;20028;-89
2021/08/12 03:37:10;;;;;;;7.68;2.92;;;;;;;;;;4935757;29;20058;-90
2021/08/12 03:39:36;;;;;;;5.25;2.92;;;;;;;;;;4936018;29;20023;-88
2021/08/12 03:42:02;;;;;;;5.95;2.65;;;;;;;;;;4936007;29;20035;-90
2021/08/12 03:44:29;;;;;;;11.63;3.13;;;;;;;;;;4935771;29;20023;-86
2021/08/12 03:46:55;;;;;;;4.53;2.78;;;;;;;;;;4935866;29;20038;-91
2021/08/12 03:49:21;;;;;;;9.75;3.08;;;;;;;;;;4935414;29;20039;-91
2021/08/12 03:51:47;;;;;;;4.50;2.55;;;;;;;;;;4935726;29;20051;-90
2021/08/12 03:54:14;;;;;;;5.93;2.92;;;;;;;;;;4935426;29;20027;-87
2021/08/12 03:56:40;;;;;;;5.57;2.95;;;;;;;;;;4937012;29;20043;-86
2021/08/12 03:59:06;;;;;;;4.85;2.97;;;;;;;;;;4935524;29;20028;-90
2021/08/12 04:01:33;;;;;;;7.78;3.38;;;;;;;;;;4937028;29;20131;-90
2021/08/12 04:03:59;;;;;;;9.10;2.97;;;;;;;;;;4935641;29;20389;-87
2021/08/12 04:06:26;;;;;;;5.47;2.83;;;;;;;;;;4935456;29;20180;-88
2021/08/12 04:08:52;;;;;;;4.25;2.47;;;;;;;;;;4937271;29;20027;-91
2021/08/12 04:11:19;;;;;;;5.03;2.33;;;;;;;;;;4935276;29;20095;-90
2021/08/12 04:13:45;;;;;;;4.15;2.55;;;;;;;;;;4935194;29;20031;-89
2021/08/12 04:16:11;;;;;;;4.45;2.63;;;;;;;;;;4935307;29;20075;-88
2021/08/12 04:18:37;;;;;;;4.20;2.13;;;;;;;;;;4935460;29;20075;-89
2021/08/12 04:21:03;;;;;;;10.82;2.90;;;;;;;;;;4951273;29;20115;-89
2021/08/12 04:23:29;;;;;;;7.90;2.67;;;;;;;;;;4954166;29;20081;-86
2021/08/12 04:25:56;;;;;;;9.95;2.90;;;;;;;;;;4954335;29;20110;-89
2021/08/12 04:28:22;;;;;;;6.97;2.80;;;;;;;;;;4955211;29;20071;-88
2021/08/12 04:30:49;;;;;;;7.40;2.50;;;;;;;;;;4954640;29;20023;-90
2021/08/12 04:33:16;;;;;;;5.05;2.30;;;;;;;;;;4957921;28;20027;-89
2021/08/12 04:35:42;;;;;;;4.43;2.42;;;;;;;;;;4959171;29;20121;-88
2021/08/12 04:38:09;;;;;;;4.22;2.13;;;;;;;;;;4957973;29;20468;-89
2021/08/12 04:40:35;;;;;;;5.30;2.05;;;;;;;;;;4958129;29;20605;-89
2021/08/12 04:43:01;;;;;;;6.28;2.15;;;;;;;;;;4958075;29;20087;-89
2021/08/12 04:45:27;;;;;;;4.15;2.20;;;;;;;;;;4957891;29;20082;-89
2021/08/12 04:48:03;;;;;;;6.32;2.20;;;;;;;;;;4958552;29;20552;-89
2021/08/12 04:50:30;;;;;;;5.13;2.47;;;;;;;;;;4957506;29;20155;-89
2021/08/12 04:52:56;;;;;;;3.67;2.03;;;;;;;;;;4957121;28;20054;-86
2021/08/12 04:55:23;;;;;;;3.55;1.95;;;;;;;;;;4957023;29;20096;-86
2021/08/12 04:57:49;;;;;;;4.47;2.33;;;;;;;;;;4954688;29;20063;-92
2021/08/12 05:00:45;;;;;;;5.75;2.80;;;;;;;;;;4953766;29;20055;-88
2021/08/12 05:03:11;;;;;;;7.05;2.55;;;;;;;;;;4939324;29;20032;-89
2021/08/12 05:05:38;;;;;;;6.22;2.25;;;;;;;;;;4938455;29;20039;-83
2021/08/12 05:08:05;;;;;;;4.10;2.28;;;;;;;;;;4937861;29;20055;-84
2021/08/12 05:10:34;;;;;;;5.63;2.97;;;;;;;;;;4942742;29;20039;-88
2021/08/12 05:13:00;;;;;;;3.95;2.28;;;;;;;;;;4938865;29;20028;-87
2021/08/12 05:15:27;;;;;;;6.00;2.42;;;;;;;;;;4937133;29;20478;-85
2021/08/12 05:17:54;;;;;;;4.32;2.25;;;;;;;;;;4937279;29;20043;-85
2021/08/12 05:20:20;;;;;;;6.15;2.35;;;;;;;;;;4937071;29;20035;-85
2021/08/12 05:22:46;;;;;;;3.05;1.73;;;;;;;;;;4937093;29;20036;-85
2021/08/12 05:25:12;;;;;;;4.57;1.65;;;;;;;;;;4937526;29;20023;-85
2021/08/12 05:27:38;;;;;;;4.28;2.15;;;;;;;;;;4937027;29;20024;-85
2021/08/12 05:30:05;;;;;;;3.70;1.70;;;;;;;;;;4936948;29;20051;-85
2021/08/12 05:32:31;;;;;;;4.88;2.10;;;;;;;;;;4936887;29;20038;-85
2021/08/12 05:34:57;;;;;;;3.53;1.70;;;;;;;;;;4936894;29;20477;-85
2021/08/12 05:37:23;;;;;;;5.80;1.98;;;;;;;;;;4941805;29;20035;-87
2021/08/12 05:39:49;;;;;;;4.32;1.73;;;;;;;;;;4955766;29;20031;-85
2021/08/12 05:42:15;;;;;;;2.90;1.52;;;;;;;;;;4955940;29;20051;-86
2021/08/12 05:44:41;;;;;;;6.75;2.17;;;;;;;;;;4954843;28;20127;-85
2021/08/12 05:47:07;;;;;;;4.50;1.63;;;;;;;;;;4956566;29;20027;-87
2021/08/12 05:49:34;;;;;;;6.70;1.88;;;;;;;;;;4956883;29;20046;-87
2021/08/12 05:52:00;;;;;;;2.95;1.55;;;;;;;;;;4957682;29;20082;-84
2021/08/12 05:54:27;;;;;;;4.63;1.63;;;;;;;;;;4955993;29;20431;-87
2021/08/12 05:56:53;;;;;;;4.97;1.95;;;;;;;;;;4955802;29;20082;-86
2021/08/12 05:59:19;;;;;;;6.38;2.10;;;;;;;;;;4955773;29;20130;-87
2021/08/12 06:01:45;;;;;;;6.43;2.08;;;;;;;;;;4955648;29;20026;-87
2021/08/12 06:04:11;;;;;;;5.53;2.22;;;;;;;;;;4955538;29;20425;-87
2021/08/12 06:06:39;;;;;;;3.80;1.60;;;;;;;;;;4955453;29;20117;-84
2021/08/12 06:09:05;;;;;;;3.75;1.92;;;;;;;;;;4955887;29;20027;-84
2021/08/12 06:11:31;;;;;;;5.05;1.80;;;;;;;;;;4955562;29;20070;-86
2021/08/12 06:13:58;;;;;;;3.85;1.73;;;;;;;;;;4955299;29;20077;-84
2021/08/12 06:16:24;;;;;;;3.67;1.70;;;;;;;;;;4956959;29;20503;-85
2021/08/12 06:18:50;;;;;;;9.95;2.25;;;;;;;;;;4955309;29;20023;-84
2021/08/12 06:21:20;;;;;;;6.55;2.10;;;;;;;;;;4957028;28;20090;-87
2021/08/12 06:23:46;;;;;;;4.85;1.75;;;;;;;;;;4955063;29;20174;-87
2021/08/12 06:26:12;;;;;;;3.70;1.80;;;;;;;;;;4955076;29;20074;-85
2021/08/12 06:28:39;;;;;;;4.95;1.60;;;;;;;;;;4955241;29;20031;-84
2021/08/12 06:31:05;;;;;;;8.23;2.17;;;;;;;;;;4956174;29;20027;-90
2021/08/12 06:33:31;;;;;;;6.47;2.00;;;;;;;;;;4954888;29;20031;-85
2021/08/12 06:35:57;;;;;;;3.15;1.58;;;;;;;;;;4954841;29;20039;-87
2021/08/12 06:38:23;;;;;;;4.28;1.80;;;;;;;;;;4954736;29;20373;-86
2021/08/12 06:40:50;;;;;;;3.38;1.70;;;;;;;;;;4954754;29;20028;-85
2021/08/12 06:43:16;;;;;;;5.22;1.90;;;;;;;;;;4954760;29;20070;-85
2021/08/12 06:45:44;;;;;;;5.47;1.75;;;;;;;;;;4955951;29;20038;-85
2021/08/12 06:48:10;;;;;;;3.90;2.00;;;;;;;;;;4954660;29;20035;-87
2021/08/12 06:50:37;;;;;;;3.85;1.75;;;;;;;;;;4954587;29;20081;-86
2021/08/12 06:53:03;;;;;;;3.17;1.73;;;;;;;;;;4954388;28;20058;-88
2021/08/12 06:55:30;;;;;;;5.65;2.15;;;;;;;;;;4954129;28;20035;-86
2021/08/12 06:57:58;;;;;;;4.20;1.70;;;;;;;;;;4955753;28;20064;-84
2021/08/12 07:00:24;;;;;;;7.93;1.83;;;;;;;;;;4956240;28;20480;-87
2021/08/12 07:02:54;;;;;;;4.72;1.83;;;;;;;;;;4956951;29;20027;-87
2021/08/12 07:05:21;;;;;;;3.47;1.90;;;;;;;;;;4954813;29;20536;-87
2021/08/12 07:07:47;;;;;;;5.38;1.90;;;;;;;;;;4954417;29;20444;-85
2021/08/12 07:10:13;;;;;;;3.35;1.80;;;;;;;;;;4955797;29;20027;-85
2021/08/12 07:12:40;;;;;;;5.30;1.98;;;;;;;;;;4955613;29;20027;-85
2021/08/12 07:15:06;;;;;;;3.72;1.80;;;;;;;;;;4954178;29;20039;-88
2021/08/12 07:17:33;;;;;;;4.88;2.33;;;;;;;;;;4954269;29;20091;-87
2021/08/12 07:19:59;;;;;;;4.28;2.13;;;;;;;;;;4954253;29;20032;-85
2021/08/12 07:22:26;;;;;;;4.03;1.90;;;;;;;;;;4955696;29;20042;-84
2021/08/12 07:24:52;;;;;;;7.68;2.22;;;;;;;;;;4955322;29;20030;-85
2021/08/12 07:27:18;;;;;;;4.32;1.92;;;;;;;;;;4954122;29;20031;-87
2021/08/12 07:29:44;;;;;;;7.80;2.25;;;;;;;;;;4954357;29;20031;-93
2021/08/12 07:32:11;;;;;;;5.93;2.00;;;;;;;;;;4954813;29;20038;-91
2021/08/12 07:34:37;;;;;;;5.18;2.15;;;;;;;;;;4954449;29;20032;-85
2021/08/12 07:37:04;;;;;;;6.38;2.03;;;;;;;;;;4955325;29;20042;-84
2021/08/12 07:39:30;;;;;;;3.45;2.05;;;;;;;;;;4954179;29;20023;-86
2021/08/12 07:41:57;;;;;;;5.00;1.95;;;;;;;;;;4954092;29;20035;-85
2021/08/12 07:44:23;;;;;;;5.18;1.88;;;;;;;;;;4954070;29;20102;-88
2021/08/12 07:46:49;;;;;;;3.63;2.00;;;;;;;;;;4954373;29;20482;-86
2021/08/12 07:49:16;;;;;;;3.83;1.90;;;;;;;;;;4953941;29;20023;-88
2021/08/12 07:51:42;;;;;;;4.60;1.92;;;;;;;;;;4953677;28;20101;-86
2021/08/12 07:54:09;;;;;;;3.70;1.80;;;;;;;;;;4956544;29;20019;-89
2021/08/12 07:56:35;;;;;;;4.57;1.98;;;;;;;;;;4954844;29;20035;-88
2021/08/12 07:59:01;;;;;;;3.70;1.90;;;;;;;;;;4953976;29;20031;-87
2021/08/12 08:01:28;;;;;;;3.00;1.73;;;;;;;;;;4953963;29;20091;-85
2021/08/12 08:03:56;;;;;;;3.30;1.85;;;;;;;;;;4955068;29;20030;-84
2021/08/12 08:06:22;;;;;;;5.05;2.00;;;;;;;;;;4953807;28;20420;-85
2021/08/12 08:08:48;;;;;;;6.30;2.10;;;;;;;;;;4958016;29;20024;-86
2021/08/12 08:11:20;;;;;;;5.38;1.83;;;;;;;;;;4961041;29;20027;-87
2021/08/12 08:13:47;;;;;;;4.53;2.22;;;;;;;;;;4957695;29;20047;-89
2021/08/12 08:16:13;;;;;;;3.95;1.70;;;;;;;;;;4957054;29;20046;-88
2021/08/12 08:18:40;;;;;;;7.68;1.90;;;;;;;;;;4959456;29;20460;-87
2021/08/12 08:21:06;;;;;;;3.38;1.83;;;;;;;;;;4957372;29;20081;-88
2021/08/12 08:23:32;;;;;;;3.78;1.95;;;;;;;;;;4958729;29;20028;-86
2021/08/12 08:25:58;;;;;;;4.63;1.77;;;;;;;;;;4958242;29;20129;-89
2021/08/12 08:28:25;;;;;;;4.80;1.83;;;;;;;;;;4957334;29;20496;-86
2021/08/12 08:30:51;;;;;;;3.40;1.88;;;;;;;;;;4958835;29;20522;-88
2021/08/12 08:33:17;;;;;;;3.42;1.67;;;;;;;;;;4957279;29;20023;-88
2021/08/12 08:35:43;;;;;;;5.93;2.45;;;;;;;;;;4957061;29;20043;-86
2021/08/12 08:38:09;;;;;;;6.53;2.63;;;;;;;;;;4957241;29;20392;-89
2021/08/12 08:40:36;;;;;;;5.85;2.28;;;;;;;;;;4957132;29;20408;-87
2021/08/12 08:43:03;;;;;;;2.83;1.67;;;;;;;;;;4958750;29;20038;-89
2021/08/12 08:45:38;;;;;;;6.85;1.90;;;;;;;;;;4966361;29;20023;-93
2021/08/12 08:48:26;;;;;;;8.23;2.10;;;;;;;;;;4964450;29;20106;-92
2021/08/12 08:50:52;;;;;;;12.68;2.58;;;;;;;;;;4960486;29;20110;-90
2021/08/12 08:53:19;;;;;;;4.63;1.92;;;;;;;;;;4957425;28;20047;-94
2021/08/12 08:55:46;;;;;;;5.35;1.73;;;;;;;;;;4957534;29;20035;-93
2021/08/12 08:58:16;;;;;;;3.38;1.60;;;;;;;;;;4959208;29;20043;-92
2021/08/12 09:00:42;;;;;;;6.57;2.20;;;;;;;;;;4959556;29;20034;-92
2021/08/12 09:03:09;;;;;;;6.07;2.13;;;;;;;;;;4959247;29;20038;-91
2021/08/12 09:05:36;;;;;;;5.53;1.88;;;;;;;;;;4957727;29;20035;-90
2021/08/12 09:08:02;;;;;;;5.65;1.98;;;;;;;;;;4957973;29;20046;-87
2021/08/12 09:10:28;;;;;;;4.88;1.80;;;;;;;;;;4967248;29;20028;-89
2021/08/12 09:12:56;;;;;;;3.75;1.75;;;;;;;;;;4965118;29;20034;-89
2021/08/12 09:15:23;;;;;;;4.97;1.70;;;;;;;;;;4957239;29;20492;-92
2021/08/12 09:17:53;;;;;;;5.45;1.77;;;;;;;;;;4956905;28;20031;-90
2021/08/12 09:20:27;;;;;;;3.47;1.75;;;;;;;;;;4958728;29;20031;-91
2021/08/12 09:22:57;;;;;;;3.35;1.75;;;;;;;;;;4957745;29;20488;-88
2021/08/12 09:25:28;;;;;;;2.80;1.40;;;;;;;;;;4957512;29;20180;-90
2021/08/12 09:28:30;;;;;;;2.95;1.30;;;;;;;;;;4957624;29;20111;-92
2021/08/12 09:31:02;;;;;;;6.60;1.65;;;;;;;;;;4881136;29;20498;-92
2021/08/12 09:33:28;;;;;;;;;;;;;;;;;;4942176;29;20036;-91
2021/08/12 09:35:55;;;;;;;2.47;1.23;;;;;;;;;;4973370;28;20260;-91
2021/08/12 09:38:21;;;;;;;3.70;1.33;;;;;;;;;;4956885;29;20027;-89
2021/08/12 09:40:58;;;;;;;5.00;1.20;;;;;;;;;;4958448;29;20038;-92
2021/08/12 09:43:30;;;;;;;1.90;0.90;;;;;;;;;;4956789;29;20027;-92
2021/08/12 09:45:57;;;;;;;2.63;1.08;;;;;;;;;;4959375;29;20127;-86
2021/08/12 09:48:23;;;;;;;3.50;1.42;;;;;;;;;;4957818;29;20472;-85
2021/08/12 09:51:05;;;;;;;2.60;1.15;;;;;;;;;;4955761;29;20031;-86
2021/08/12 09:53:31;;;;;;;3.60;1.42;;;;;;;;;;4917762;29;20047;-84
2021/08/12 09:56:08;;;;;;;2.33;1.20;;;;;;;;;;4918638;29;20036;-84
2021/08/12 09:58:38;;;;;;;2.35;1.08;;;;;;;;;;4917082;29;20039;-86
2021/08/12 10:01:16;;;;;;;3.35;1.30;;;;;;;;;;4918545;29;20131;-86
2021/08/12 10:03:44;;;;;;;3.90;1.50;;;;;;;;;;4918854;29;20035;-85
2021/08/12 10:06:18;;;;;;;2.50;1.20;;;;;;;;;;4917018;29;20065;-86
2021/08/12 10:08:44;;;;;;;3.22;1.48;;;;;;;;;;4917405;29;20028;-84
2021/08/12 10:11:16;;;;;;;2.25;1.20;;;;;;;;;;4918528;29;20040;-86
2021/08/12 10:13:44;;;;;;;11.10;1.30;;;;;;;;;;4918388;29;20394;-86
2021/08/12 10:16:10;;;;;;;4.63;1.60;;;;;;;;;;4917400;29;20450;-86
2021/08/12 10:18:41;;;;;;;2.70;1.50;;;;;;;;;;4917452;29;20050;-86
2021/08/12 10:21:12;;;;;;;4.65;1.40;;;;;;;;;;4920030;29;20056;-87
2021/08/12 10:23:39;;;;;;;5.95;1.50;;;;;;;;;;4918959;29;20029;-85
2021/08/12 10:26:06;;;;;;;6.30;1.13;;;;;;;;;;4918234;29;20508;-86
2021/08/12 10:28:36;;;;;;;8.27;1.38;;;;;;;;;;4917075;29;20036;-87
2021/08/12 10:31:03;;;;;;;3.90;1.40;;;;;;;;;;4916353;29;20115;-86
2021/08/12 10:33:30;;;;;;;3.17;1.58;;;;;;;;;;4916897;29;20035;-85
2021/08/12 10:36:00;;;;;;;3.03;1.30;;;;;;;;;;4916917;29;20504;-84
2021/08/12 10:38:26;;;;;;;6.35;1.50;;;;;;;;;;4916772;29;20445;-86
2021/08/12 10:40:53;;;;;;;4.45;1.52;;;;;;;;;;4917971;29;20159;-84
2021/08/12 10:43:24;;;;;;;3.00;1.17;;;;;;;;;;4918482;29;20039;-86
2021/08/12 10:45:57;;;;;;;3.30;1.60;;;;;;;;;;4916723;29;20036;-84
2021/08/12 10:48:24;;;;;;;2.42;1.35;;;;;;;;;;4916696;29;20024;-86
2021/08/12 10:51:11;;;;;;;2.00;1.05;;;;;;;;;;4916675;29;20474;-84
2021/08/12 10:53:38;;;;;;;4.53;1.45;;;;;;;;;;4916645;29;20039;-88
2021/08/12 10:56:05;;;;;;;2.47;1.23;;;;;;;;;;4916511;29;20043;-84
2021/08/12 10:58:33;;;;;;;2.78;1.42;;;;;;;;;;4918226;29;20076;-86
2021/08/12 11:01:09;;;;;;;6.15;1.58;;;;;;;;;;4916514;29;20486;-86
2021/08/12 11:03:43;;;;;;;4.50;1.80;;;;;;;;;;4916718;29;20028;-84
2021/08/12 11:06:13;;;;;;;2.85;1.45;;;;;;;;;;4918627;29;20072;-84
2021/08/12 11:08:51;;;;;;;7.10;1.85;;;;;;;;;;4917543;29;20063;-86
2021/08/12 11:11:20;;;;;;;3.90;1.67;;;;;;;;;;4916159;29;20024;-85
2021/08/12 11:13:47;;;;;;;3.63;1.67;;;;;;;;;;4916304;29;20029;-86
2021/08/12 11:16:13;;;;;;;4.85;1.70;;;;;;;;;;4915995;29;20044;-87
2021/08/12 11:18:58;;;;;;;5.22;1.67;;;;;;;;;;4916176;29;20119;-84
2021/08/12 11:21:31;;;;;;;3.20;1.80;;;;;;;;;;4916574;29;20136;-86
2021/08/12 11:23:57;;;;;;;;;;;;;;;;;;4916539;29;20181;-86
2021/08/12 11:26:23;;;;;;;5.80;1.80;;;;;;;;;;4915846;29;19907;-84
2021/08/12 11:28:51;;;;;;;6.70;1.80;;;;;;;;;;4915914;29;20036;-86
2021/08/12 11:31:23;;;;;;;3.85;1.88;;;;;;;;;;4916037;29;20024;-86
2021/08/12 11:33:50;;;;;;;3.92;1.67;;;;;;;;;;4916242;29;20028;-86
2021/08/12 11:36:18;;;;;;;6.38;1.80;;;;;;;;;;4915948;29;20126;-87
2021/08/12 11:38:47;;;;;;;3.42;1.42;;;;;;;;;;4915898;29;20025;-84
2021/08/12 11:41:13;;;;;;;2.95;1.42;;;;;;;;;;4916391;29;20040;-85
2021/08/12 11:43:41;;;;;;;5.32;1.85;;;;;;;;;;4920049;29;20024;-87
2021/08/12 11:46:09;;;;;;;3.28;1.60;;;;;;;;;;4919844;29;20507;-88
2021/08/12 11:48:35;;;;;;;4.28;1.92;;;;;;;;;;4921066;29;20055;-85
2021/08/12 11:51:03;;;;;;;7.78;1.88;;;;;;;;;;4920024;29;20032;-87
2021/08/12 11:53:49;;;;;;;2.70;1.45;;;;;;;;;;4957904;29;20035;-87
2021/08/12 11:56:19;;;;;;;7.78;2.63;;;;;;;;;;4957866;29;20039;-96
2021/08/12 11:58:46;;;;;;;5.00;1.50;;;;;;;;;;4959005;29;20028;-86
2021/08/12 12:01:18;;;;;;;3.22;1.35;;;;;;;;;;4959935;29;20028;-88
2021/08/12 12:03:45;;;;;;;3.58;1.77;;;;;;;;;;4958354;29;20047;-86
2021/08/12 12:06:12;;;;;;;6.20;1.75;;;;;;;;;;4957629;29;20128;-86
2021/08/12 12:08:38;;;;;;;2.83;1.60;;;;;;;;;;4959537;29;20027;-86
2021/08/12 12:11:09;;;;;;;3.30;1.63;;;;;;;;;;4957772;29;20487;-86
2021/08/12 12:13:35;;;;;;;3.47;1.65;;;;;;;;;;4958914;29;20519;-85
2021/08/12 12:16:07;;;;;;;3.95;1.70;;;;;;;;;;4958984;28;20396;-86
2021/08/12 12:18:37;;;;;;;8.35;1.95;;;;;;;;;;4957559;29;20023;-86
2021/08/12 12:21:08;;;;;;;5.65;1.95;;;;;;;;;;4958723;29;20050;-86
2021/08/12 12:23:34;;;;;;;3.92;1.90;;;;;;;;;;4959356;29;20086;-87
2021/08/12 12:26:01;;;;;;;2.92;1.85;;;;;;;;;;4958720;29;20031;-87
2021/08/12 12:28:30;;;;;;;2.80;1.40;;;;;;;;;;4957514;29;20062;-86
2021/08/12 12:30:56;;;;;;;4.43;1.70;;;;;;;;;;4957389;29;20037;-86
2021/08/12 12:33:25;;;;;;;3.72;1.58;;;;;;;;;;4957339;29;20071;-86
2021/08/12 12:35:53;;;;;;;4.95;2.15;;;;;;;;;;4957157;29;20049;-87
2021/08/12 12:38:21;;;;;;;6.60;2.00;;;;;;;;;;4958424;28;20106;-87
2021/08/12 12:40:48;;;;;;;4.68;2.15;;;;;;;;;;4957080;29;20023;-87
2021/08/12 12:43:15;;;;;;;4.03;1.90;;;;;;;;;;4957074;29;20039;-85
2021/08/12 12:45:54;;;;;;;6.18;1.90;;;;;;;;;;4958216;29;20031;-86
2021/08/12 12:48:28;;;;;;;3.92;1.88;;;;;;;;;;4958183;29;20042;-86
2021/08/12 12:50:54;;;;;;;4.30;1.90;;;;;;;;;;4956964;29;20043;-88
2021/08/12 12:53:27;;;;;;;3.97;1.77;;;;;;;;;;4956056;28;20130;-88
2021/08/12 12:55:54;;;;;;;4.40;1.85;;;;;;;;;;4956714;29;20027;-86
2021/08/12 12:58:21;;;;;;;4.90;1.88;;;;;;;;;;4940878;29;20036;-86
2021/08/12 13:01:16;;;;;;;3.13;1.80;;;;;;;;;;4956798;29;20023;-88
2021/08/12 13:03:43;;;;;;;5.30;1.88;;;;;;;;;;4940463;29;20488;-86
2021/08/12 13:06:11;;;;;;;2.75;1.70;;;;;;;;;;4957163;29;20031;-89
2021/08/12 13:08:50;;;;;;;4.72;1.75;;;;;;;;;;4957466;29;20028;-87
2021/08/12 13:11:20;;;;;;;5.38;1.77;;;;;;;;;;4957706;29;20542;-93
2021/08/12 13:13:48;;;;;;;9.07;2.00;;;;;;;;;;4957210;29;20023;-89
2021/08/12 13:16:16;;;;;;;4.45;2.10;;;;;;;;;;4958064;29;20039;-91
2021/08/12 13:19:01;;;;;;;3.83;1.75;;;;;;;;;;4957096;29;20113;-90
2021/08/12 13:21:37;;;;;;;4.60;1.75;;;;;;;;;;4957386;29;20040;-90
2021/08/12 13:24:08;;;;;;;3.70;1.67;;;;;;;;;;4958853;29;20388;-92
2021/08/12 13:26:44;;;;;;;4.00;1.92;;;;;;;;;;4959909;29;20050;-95
2021/08/12 13:29:13;;;;;;;5.53;2.33;;;;;;;;;;4957389;29;20027;-85
2021/08/12 13:31:40;;;;;;;10.82;2.20;;;;;;;;;;4959367;29;20106;-84
2021/08/12 13:34:06;;;;;;;5.03;1.90;;;;;;;;;;4955877;29;20031;-89
2021/08/12 13:36:33;;;;;;;4.85;1.70;;;;;;;;;;4955666;29;20039;-83
2021/08/12 13:38:59;;;;;;;4.18;1.98;;;;;;;;;;4956063;29;20027;-85
2021/08/12 13:41:25;;;;;;;3.55;1.95;;;;;;;;;;4956752;29;20095;-84
2021/08/12 13:43:51;;;;;;;4.05;1.88;;;;;;;;;;4956160;29;20045;-84
2021/08/12 13:46:24;;;;;;;7.85;1.98;;;;;;;;;;4957736;29;20113;-81
2021/08/12 13:48:50;;;;;;;;;;;;;;;;;;4958913;29;20035;-82
2021/08/12 13:51:16;;;;;;;2.97;1.67;;;;;;;;;;4956887;29;19906;-85
2021/08/12 13:53:42;;;;;;;3.63;1.92;;;;;;;;;;4955702;29;20039;-85
2021/08/12 13:56:08;;;;;;;3.67;1.98;;;;;;;;;;4955590;29;20039;-85
2021/08/12 13:58:34;;;;;;;5.13;1.90;;;;;;;;;;4955823;29;20050;-88
2021/08/12 14:01:00;;;;;;;4.30;1.95;;;;;;;;;;4955598;29;20369;-85
2021/08/12 14:03:27;;;;;;;3.47;1.80;;;;;;;;;;4956829;29;20034;-85
2021/08/12 14:05:53;;;;;;;2.67;1.80;;;;;;;;;;4954558;28;20027;-88
2021/08/12 14:08:19;;;;;;;7.95;2.05;;;;;;;;;;4955535;29;20062;-84
2021/08/12 14:10:45;;;;;;;4.00;1.90;;;;;;;;;;4956672;29;20031;-87
2021/08/12 14:13:11;;;;;;;4.72;2.22;;;;;;;;;;4955304;29;20031;-87
2021/08/12 14:15:38;;;;;;;4.05;2.28;;;;;;;;;;4955211;29;20370;-87
2021/08/12 14:18:04;;;;;;;7.43;2.28;;;;;;;;;;4955534;29;20047;-87
2021/08/12 14:20:30;;;;;;;3.78;2.00;;;;;;;;;;4955342;29;20543;-85
2021/08/12 14:22:57;;;;;;;5.30;2.33;;;;;;;;;;4955305;29;20033;-85
2021/08/12 14:25:23;;;;;;;5.80;2.67;;;;;;;;;;4955203;29;20031;-88
2021/08/12 14:27:49;;;;;;;6.03;1.65;;;;;;;;;;4955193;29;20027;-85
2021/08/12 14:30:15;;;;;;;4.20;2.03;;;;;;;;;;4956515;29;20027;-88
2021/08/12 14:32:42;;;;;;;5.10;2.20;;;;;;;;;;4956281;29;20182;-85
2021/08/12 14:35:08;;;;;;;3.63;2.03;;;;;;;;;;4955038;29;20051;-85
2021/08/12 14:37:34;;;;;;;5.03;2.40;;;;;;;;;;4954926;29;20063;-87
2021/08/12 14:40:05;;;;;;;12.80;2.25;;;;;;;;;;4954910;29;20066;-85
2021/08/12 14:42:32;;;;;;;4.07;2.08;;;;;;;;;;4954939;29;20031;-84
2021/08/12 14:44:58;;;;;;;10.52;2.35;;;;;;;;;;4956059;29;20081;-87
2021/08/12 14:47:24;;;;;;;4.07;2.00;;;;;;;;;;4954717;29;20054;-88